sensor_id;sensor_type;location;lat;lon;timestamp;noise_LAeq;noise_LA_min;noise_LA_max;noise_LA01;noise_LA95
71016;Laerm;60940;52.046;5.340;2023-04-03T00:00:06;31.18;29.73;32.76;;
71016;Laerm;60940;52.046;5.340;2023-04-03T00:00:17;31.74;30.25;33.87;;
71016;Laerm;60940;52.046;5.340;2023-04-03T00:00:27;31.47;29.91;32.96;;
71016;Laerm;60940;52.046;5.340;2023-04-03T00:00:37;31.89;30.30;34.07;;
71016;Laerm;60940;52.046;5.340;2023-04-03T00:00:48;31.73;29.66;34.29;;
71016;Laerm;60940;52.046;5.340;2023-04-03T00:00:59;31.41;29.59;33.79;;
71016;Laerm;60940;52.046;5.340;2023-04-03T00:01:10;31.40;29.15;33.45;;
71016;Laerm;60940;52.046;5.340;2023-04-03T00:01:20;31.32;29.62;33.20;;
71016;Laerm;60940;52.046;5.340;2023-04-03T00:01:30;31.31;29.60;33.09;;
71016;Laerm;60940;52.046;5.340;2023-04-03T00:01:41;31.26;29.70;32.78;;
71016;Laerm;60940;52.046;5.340;2023-04-03T00:01:51;31.51;30.07;33.04;;
71016;Laerm;60940;52.046;5.340;2023-04-03T00:02:01;31.45;29.63;33.94;;
71016;Laerm;60940;52.046;5.340;2023-04-03T00:02:11;31.65;29.91;34.35;;
71016;Laerm;60940;52.046;5.340;2023-04-03T00:02:22;31.31;30.08;32.97;;
71016;Laerm;60940;52.046;5.340;2023-04-03T00:02:32;31.16;29.90;33.22;;
71016;Laerm;60940;52.046;5.340;2023-04-03T00:02:42;30.91;29.35;32.40;;
71016;Laerm;60940;52.046;5.340;2023-04-03T00:02:52;31.37;29.88;33.72;;
71016;Laerm;60940;52.046;5.340;2023-04-03T00:03:03;31.67;29.87;35.65;;
71016;Laerm;60940;52.046;5.340;2023-04-03T00:03:13;31.69;30.17;34.34;;
71016;Laerm;60940;52.046;5.340;2023-04-03T00:03:23;31.83;30.45;33.76;;
71016;Laerm;60940;52.046;5.340;2023-04-03T00:03:33;31.32;30.00;32.76;;
71016;Laerm;60940;52.046;5.340;2023-04-03T00:03:44;31.05;29.69;34.12;;
71016;Laerm;60940;52.046;5.340;2023-04-03T00:03:55;30.98;29.52;32.30;;
71016;Laerm;60940;52.046;5.340;2023-04-03T00:04:05;30.98;29.57;32.30;;
71016;Laerm;60940;52.046;5.340;2023-04-03T00:04:15;31.53;30.05;33.60;;
71016;Laerm;60940;52.046;5.340;2023-04-03T00:04:26;31.06;29.71;33.44;;
71016;Laerm;60940;52.046;5.340;2023-04-03T00:04:36;31.24;29.64;33.47;;
71016;Laerm;60940;52.046;5.340;2023-04-03T00:04:46;31.09;29.52;33.79;;
71016;Laerm;60940;52.046;5.340;2023-04-03T00:04:56;30.92;29.04;33.28;;
71016;Laerm;60940;52.046;5.340;2023-04-03T00:05:07;31.28;29.56;32.96;;
71016;Laerm;60940;52.046;5.340;2023-04-03T00:05:17;31.41;29.96;33.05;;
71016;Laerm;60940;52.046;5.340;2023-04-03T00:05:27;31.26;29.74;33.07;;
71016;Laerm;60940;52.046;5.340;2023-04-03T00:05:37;31.87;29.94;38.96;;
71016;Laerm;60940;52.046;5.340;2023-04-03T00:05:47;31.32;29.97;36.41;;
71016;Laerm;60940;52.046;5.340;2023-04-03T00:05:58;31.17;29.82;32.51;;
71016;Laerm;60940;52.046;5.340;2023-04-03T00:06:08;31.10;29.81;32.88;;
71016;Laerm;60940;52.046;5.340;2023-04-03T00:06:20;31.26;29.99;33.12;;
71016;Laerm;60940;52.046;5.340;2023-04-03T00:06:31;31.10;29.58;32.28;;
71016;Laerm;60940;52.046;5.340;2023-04-03T00:06:41;38.17;30.04;50.19;;
71016;Laerm;60940;52.046;5.340;2023-04-03T00:06:51;32.09;30.34;33.91;;
71016;Laerm;60940;52.046;5.340;2023-04-03T00:07:02;32.79;30.45;40.50;;
71016;Laerm;60940;52.046;5.340;2023-04-03T00:07:12;33.14;30.29;42.52;;
71016;Laerm;60940;52.046;5.340;2023-04-03T00:07:22;31.98;30.18;37.29;;
71016;Laerm;60940;52.046;5.340;2023-04-03T00:07:32;31.38;29.91;33.61;;
71016;Laerm;60940;52.046;5.340;2023-04-03T00:07:43;31.99;30.16;36.40;;
71016;Laerm;60940;52.046;5.340;2023-04-03T00:07:53;31.78;30.08;36.13;;
71016;Laerm;60940;52.046;5.340;2023-04-03T00:08:03;31.81;29.78;35.34;;
71016;Laerm;60940;52.046;5.340;2023-04-03T00:08:14;31.95;30.23;35.88;;
71016;Laerm;60940;52.046;5.340;2023-04-03T00:08:25;31.39;29.42;32.58;;
71016;Laerm;60940;52.046;5.340;2023-04-03T00:08:35;31.31;30.14;33.49;;
71016;Laerm;60940;52.046;5.340;2023-04-03T00:08:45;31.03;29.53;32.78;;
71016;Laerm;60940;52.046;5.340;2023-04-03T00:08:55;31.26;29.99;33.72;;
71016;Laerm;60940;52.046;5.340;2023-04-03T00:09:05;31.57;29.87;32.86;;
71016;Laerm;60940;52.046;5.340;2023-04-03T00:09:16;31.49;29.63;33.12;;
71016;Laerm;60940;52.046;5.340;2023-04-03T00:09:26;32.18;30.22;33.75;;
71016;Laerm;60940;52.046;5.340;2023-04-03T00:09:36;32.64;30.82;39.54;;
71016;Laerm;60940;52.046;5.340;2023-04-03T00:09:46;32.45;30.50;34.48;;
71016;Laerm;60940;52.046;5.340;2023-04-03T00:09:56;33.26;30.44;35.44;;
71016;Laerm;60940;52.046;5.340;2023-04-03T00:10:07;33.09;30.94;39.77;;
71016;Laerm;60940;52.046;5.340;2023-04-03T00:10:17;32.77;30.60;39.66;;
71016;Laerm;60940;52.046;5.340;2023-04-03T00:10:28;32.41;30.19;34.14;;
71016;Laerm;60940;52.046;5.340;2023-04-03T00:10:38;32.09;30.25;35.46;;
71016;Laerm;60940;52.046;5.340;2023-04-03T00:10:48;31.69;30.16;33.42;;
71016;Laerm;60940;52.046;5.340;2023-04-03T00:10:59;31.62;30.15;33.17;;
71016;Laerm;60940;52.046;5.340;2023-04-03T00:11:09;31.62;29.91;33.12;;
71016;Laerm;60940;52.046;5.340;2023-04-03T00:11:20;31.63;30.04;33.19;;
71016;Laerm;60940;52.046;5.340;2023-04-03T00:11:30;31.46;29.93;32.88;;
71016;Laerm;60940;52.046;5.340;2023-04-03T00:11:40;31.67;30.17;33.90;;
71016;Laerm;60940;52.046;5.340;2023-04-03T00:11:51;31.69;30.20;35.26;;
71016;Laerm;60940;52.046;5.340;2023-04-03T00:12:01;31.00;29.64;32.37;;
71016;Laerm;60940;52.046;5.340;2023-04-03T00:12:11;31.07;29.65;32.81;;
71016;Laerm;60940;52.046;5.340;2023-04-03T00:12:21;31.42;29.54;42.99;;
71016;Laerm;60940;52.046;5.340;2023-04-03T00:12:31;31.11;29.78;32.28;;
71016;Laerm;60940;52.046;5.340;2023-04-03T00:12:42;30.96;29.64;32.18;;
71016;Laerm;60940;52.046;5.340;2023-04-03T00:12:52;31.31;29.93;33.00;;
71016;Laerm;60940;52.046;5.340;2023-04-03T00:13:05;31.21;29.10;32.69;;
71016;Laerm;60940;52.046;5.340;2023-04-03T00:13:16;31.10;29.96;32.86;;
71016;Laerm;60940;52.046;5.340;2023-04-03T00:13:26;32.22;29.93;35.47;;
71016;Laerm;60940;52.046;5.340;2023-04-03T00:13:37;31.46;29.96;33.13;;
71016;Laerm;60940;52.046;5.340;2023-04-03T00:13:48;31.35;29.85;32.67;;
71016;Laerm;60940;52.046;5.340;2023-04-03T00:13:58;31.54;30.09;33.43;;
71016;Laerm;60940;52.046;5.340;2023-04-03T00:14:08;31.82;30.29;33.83;;
71016;Laerm;60940;52.046;5.340;2023-04-03T00:14:18;32.55;30.38;35.15;;
71016;Laerm;60940;52.046;5.340;2023-04-03T00:14:29;32.20;30.05;37.14;;
71016;Laerm;60940;52.046;5.340;2023-04-03T00:14:39;31.90;30.39;33.22;;
71016;Laerm;60940;52.046;5.340;2023-04-03T00:14:49;32.25;30.52;35.01;;
71016;Laerm;60940;52.046;5.340;2023-04-03T00:14:59;33.67;31.41;40.26;;
71016;Laerm;60940;52.046;5.340;2023-04-03T00:15:10;37.95;31.02;54.79;;
71016;Laerm;60940;52.046;5.340;2023-04-03T00:15:20;32.25;30.29;39.00;;
71016;Laerm;60940;52.046;5.340;2023-04-03T00:15:31;32.29;30.63;33.82;;
71016;Laerm;60940;52.046;5.340;2023-04-03T00:15:41;31.60;30.20;36.88;;
71016;Laerm;60940;52.046;5.340;2023-04-03T00:15:51;31.89;30.21;34.01;;
71016;Laerm;60940;52.046;5.340;2023-04-03T00:16:02;32.49;30.43;40.33;;
71016;Laerm;60940;52.046;5.340;2023-04-03T00:16:13;31.72;30.08;34.18;;
71016;Laerm;60940;52.046;5.340;2023-04-03T00:16:23;31.15;29.54;33.07;;
71016;Laerm;60940;52.046;5.340;2023-04-03T00:16:33;31.08;29.69;33.05;;
71016;Laerm;60940;52.046;5.340;2023-04-03T00:16:44;31.35;30.06;32.85;;
71016;Laerm;60940;52.046;5.340;2023-04-03T00:16:54;31.31;29.97;32.57;;
71016;Laerm;60940;52.046;5.340;2023-04-03T00:17:04;31.17;29.80;32.74;;
71016;Laerm;60940;52.046;5.340;2023-04-03T00:17:14;31.41;29.66;33.70;;
71016;Laerm;60940;52.046;5.340;2023-04-03T00:17:25;31.50;29.99;33.33;;
71016;Laerm;60940;52.046;5.340;2023-04-03T00:17:35;31.48;30.10;33.38;;
71016;Laerm;60940;52.046;5.340;2023-04-03T00:17:45;31.70;30.00;37.78;;
71016;Laerm;60940;52.046;5.340;2023-04-03T00:17:55;31.16;29.45;35.08;;
71016;Laerm;60940;52.046;5.340;2023-04-03T00:18:05;31.17;29.81;32.90;;
71016;Laerm;60940;52.046;5.340;2023-04-03T00:18:16;31.33;29.83;32.66;;
71016;Laerm;60940;52.046;5.340;2023-04-03T00:18:26;31.25;29.94;32.56;;
71016;Laerm;60940;52.046;5.340;2023-04-03T00:18:36;31.26;29.95;33.08;;
71016;Laerm;60940;52.046;5.340;2023-04-03T00:18:47;31.45;30.13;32.69;;
71016;Laerm;60940;52.046;5.340;2023-04-03T00:18:57;31.19;29.06;32.53;;
71016;Laerm;60940;52.046;5.340;2023-04-03T00:19:08;31.53;30.32;32.98;;
71016;Laerm;60940;52.046;5.340;2023-04-03T00:19:18;31.59;29.76;32.84;;
71016;Laerm;60940;52.046;5.340;2023-04-03T00:19:28;31.88;29.97;33.61;;
71016;Laerm;60940;52.046;5.340;2023-04-03T00:19:38;31.68;30.03;33.12;;
71016;Laerm;60940;52.046;5.340;2023-04-03T00:19:48;31.57;29.90;33.02;;
71016;Laerm;60940;52.046;5.340;2023-04-03T00:19:59;31.78;30.44;33.26;;
71016;Laerm;60940;52.046;5.340;2023-04-03T00:20:09;31.78;29.95;33.38;;
71016;Laerm;60940;52.046;5.340;2023-04-03T00:20:19;32.23;30.74;33.85;;
71016;Laerm;60940;52.046;5.340;2023-04-03T00:20:30;31.93;30.27;34.02;;
71016;Laerm;60940;52.046;5.340;2023-04-03T00:20:40;31.64;30.26;32.92;;
71016;Laerm;60940;52.046;5.340;2023-04-03T00:20:50;31.70;30.28;33.26;;
71016;Laerm;60940;52.046;5.340;2023-04-03T00:21:01;31.62;30.24;33.21;;
71016;Laerm;60940;52.046;5.340;2023-04-03T00:21:12;31.49;29.78;33.19;;
71016;Laerm;60940;52.046;5.340;2023-04-03T00:21:22;31.17;29.64;32.59;;
71016;Laerm;60940;52.046;5.340;2023-04-03T00:21:32;31.74;30.00;33.44;;
71016;Laerm;60940;52.046;5.340;2023-04-03T00:21:43;32.02;30.36;33.83;;
71016;Laerm;60940;52.046;5.340;2023-04-03T00:21:53;32.60;30.48;34.81;;
71016;Laerm;60940;52.046;5.340;2023-04-03T00:22:03;32.67;30.89;34.17;;
71016;Laerm;60940;52.046;5.340;2023-04-03T00:22:13;32.88;31.28;34.79;;
71016;Laerm;60940;52.046;5.340;2023-04-03T00:22:23;33.06;30.92;42.42;;
71016;Laerm;60940;52.046;5.340;2023-04-03T00:22:34;32.23;30.57;33.85;;
71016;Laerm;60940;52.046;5.340;2023-04-03T00:22:44;32.97;30.84;35.50;;
71016;Laerm;60940;52.046;5.340;2023-04-03T00:22:54;32.02;30.04;34.19;;
71016;Laerm;60940;52.046;5.340;2023-04-03T00:23:05;31.23;29.51;32.68;;
71016;Laerm;60940;52.046;5.340;2023-04-03T00:23:15;31.21;29.93;32.62;;
71016;Laerm;60940;52.046;5.340;2023-04-03T00:23:26;31.12;29.76;32.62;;
71016;Laerm;60940;52.046;5.340;2023-04-03T00:23:36;31.35;29.73;34.23;;
71016;Laerm;60940;52.046;5.340;2023-04-03T00:23:46;31.27;29.87;33.53;;
71016;Laerm;60940;52.046;5.340;2023-04-03T00:23:57;31.14;29.24;32.70;;
71016;Laerm;60940;52.046;5.340;2023-04-03T00:24:07;31.09;29.62;32.52;;
71016;Laerm;60940;52.046;5.340;2023-04-03T00:24:17;31.14;29.96;32.72;;
71016;Laerm;60940;52.046;5.340;2023-04-03T00:24:27;31.27;29.79;32.78;;
71016;Laerm;60940;52.046;5.340;2023-04-03T00:24:37;31.34;29.92;33.59;;
71016;Laerm;60940;52.046;5.340;2023-04-03T00:24:48;31.17;29.74;32.46;;
71016;Laerm;60940;52.046;5.340;2023-04-03T00:24:58;31.51;29.59;33.06;;
71016;Laerm;60940;52.046;5.340;2023-04-03T00:25:08;31.71;29.88;33.67;;
71016;Laerm;60940;52.046;5.340;2023-04-03T00:25:18;32.04;30.16;34.30;;
71016;Laerm;60940;52.046;5.340;2023-04-03T00:25:29;32.07;30.02;33.40;;
71016;Laerm;60940;52.046;5.340;2023-04-03T00:25:39;31.81;30.53;33.06;;
71016;Laerm;60940;52.046;5.340;2023-04-03T00:25:50;31.78;30.30;33.53;;
71016;Laerm;60940;52.046;5.340;2023-04-03T00:26:00;31.64;29.84;33.38;;
71016;Laerm;60940;52.046;5.340;2023-04-03T00:26:11;31.38;29.93;32.99;;
71016;Laerm;60940;52.046;5.340;2023-04-03T00:26:21;31.53;29.94;33.06;;
71016;Laerm;60940;52.046;5.340;2023-04-03T00:26:31;32.01;30.18;34.18;;
71016;Laerm;60940;52.046;5.340;2023-04-03T00:26:41;31.51;30.12;32.69;;
71016;Laerm;60940;52.046;5.340;2023-04-03T00:26:51;31.23;29.97;32.55;;
71016;Laerm;60940;52.046;5.340;2023-04-03T00:27:02;31.08;29.96;32.16;;
71016;Laerm;60940;52.046;5.340;2023-04-03T00:27:12;31.13;29.69;33.64;;
71016;Laerm;60940;52.046;5.340;2023-04-03T00:27:22;31.25;29.64;34.05;;
71016;Laerm;60940;52.046;5.340;2023-04-03T00:27:32;31.19;29.60;32.70;;
71016;Laerm;60940;52.046;5.340;2023-04-03T00:27:42;31.25;29.73;33.08;;
71016;Laerm;60940;52.046;5.340;2023-04-03T00:27:53;31.08;29.68;32.35;;
71016;Laerm;60940;52.046;5.340;2023-04-03T00:28:03;31.15;29.72;32.84;;
71016;Laerm;60940;52.046;5.340;2023-04-03T00:28:14;31.23;29.55;32.56;;
71016;Laerm;60940;52.046;5.340;2023-04-03T00:28:24;31.19;29.93;32.67;;
71016;Laerm;60940;52.046;5.340;2023-04-03T00:28:35;31.25;29.82;32.47;;
71016;Laerm;60940;52.046;5.340;2023-04-03T00:28:45;31.40;29.94;33.33;;
71016;Laerm;60940;52.046;5.340;2023-04-03T00:28:55;31.33;29.78;32.54;;
71016;Laerm;60940;52.046;5.340;2023-04-03T00:29:06;31.42;30.11;32.97;;
71016;Laerm;60940;52.046;5.340;2023-04-03T00:29:16;31.23;29.48;32.98;;
71016;Laerm;60940;52.046;5.340;2023-04-03T00:29:26;30.95;29.58;32.26;;
71016;Laerm;60940;52.046;5.340;2023-04-03T00:29:36;30.97;29.22;35.27;;
71016;Laerm;60940;52.046;5.340;2023-04-03T00:29:46;31.44;29.40;33.69;;
71016;Laerm;60940;52.046;5.340;2023-04-03T00:29:57;30.98;29.10;32.61;;
71016;Laerm;60940;52.046;5.340;2023-04-03T00:30:07;30.90;29.65;32.13;;
71016;Laerm;60940;52.046;5.340;2023-04-03T00:30:19;31.00;29.22;32.37;;
71016;Laerm;60940;52.046;5.340;2023-04-03T00:30:30;31.23;29.89;32.80;;
71016;Laerm;60940;52.046;5.340;2023-04-03T00:30:40;31.26;29.93;33.19;;
71016;Laerm;60940;52.046;5.340;2023-04-03T00:30:51;31.47;29.65;33.05;;
71016;Laerm;60940;52.046;5.340;2023-04-03T00:31:01;31.35;29.77;32.87;;
71016;Laerm;60940;52.046;5.340;2023-04-03T00:31:13;31.57;30.15;33.16;;
71016;Laerm;60940;52.046;5.340;2023-04-03T00:31:24;32.62;30.58;36.00;;
71016;Laerm;60940;52.046;5.340;2023-04-03T00:31:35;34.26;31.92;36.81;;
71016;Laerm;60940;52.046;5.340;2023-04-03T00:31:45;33.69;31.47;36.00;;
71016;Laerm;60940;52.046;5.340;2023-04-03T00:31:55;32.52;30.62;34.22;;
71016;Laerm;60940;52.046;5.340;2023-04-03T00:32:05;32.24;30.36;34.33;;
71016;Laerm;60940;52.046;5.340;2023-04-03T00:32:16;31.36;29.81;32.87;;
71016;Laerm;60940;52.046;5.340;2023-04-03T00:32:26;31.12;29.75;32.66;;
71016;Laerm;60940;52.046;5.340;2023-04-03T00:32:36;31.34;29.63;38.93;;
71016;Laerm;60940;52.046;5.340;2023-04-03T00:32:49;31.05;29.53;32.30;;
71016;Laerm;60940;52.046;5.340;2023-04-03T00:32:59;30.94;29.41;32.22;;
71016;Laerm;60940;52.046;5.340;2023-04-03T00:33:12;30.87;29.57;32.60;;
71016;Laerm;60940;52.046;5.340;2023-04-03T00:33:22;31.05;29.49;32.24;;
71016;Laerm;60940;52.046;5.340;2023-04-03T00:33:34;30.87;29.21;32.66;;
71016;Laerm;60940;52.046;5.340;2023-04-03T00:33:44;30.89;29.18;32.79;;
71016;Laerm;60940;52.046;5.340;2023-04-03T00:33:55;30.72;29.20;32.11;;
71016;Laerm;60940;52.046;5.340;2023-04-03T00:34:05;30.73;29.18;32.54;;
71016;Laerm;60940;52.046;5.340;2023-04-03T00:34:15;30.81;29.31;32.15;;
71016;Laerm;60940;52.046;5.340;2023-04-03T00:34:25;30.93;29.62;32.09;;
71016;Laerm;60940;52.046;5.340;2023-04-03T00:34:36;31.18;29.64;32.50;;
71016;Laerm;60940;52.046;5.340;2023-04-03T00:34:46;31.26;29.43;35.74;;
71016;Laerm;60940;52.046;5.340;2023-04-03T00:34:56;34.79;30.00;49.44;;
71016;Laerm;60940;52.046;5.340;2023-04-03T00:35:06;31.48;29.67;37.47;;
71016;Laerm;60940;52.046;5.340;2023-04-03T00:35:17;30.92;29.79;32.28;;
71016;Laerm;60940;52.046;5.340;2023-04-03T00:35:27;31.34;29.87;32.64;;
71016;Laerm;60940;52.046;5.340;2023-04-03T00:35:38;31.68;29.79;33.14;;
71016;Laerm;60940;52.046;5.340;2023-04-03T00:35:48;31.95;30.21;33.30;;
71016;Laerm;60940;52.046;5.340;2023-04-03T00:35:58;32.20;30.64;33.85;;
71016;Laerm;60940;52.046;5.340;2023-04-03T00:36:09;33.42;30.37;43.91;;
71016;Laerm;60940;52.046;5.340;2023-04-03T00:36:20;31.84;30.34;34.89;;
71016;Laerm;60940;52.046;5.340;2023-04-03T00:36:30;31.75;30.08;36.12;;
71016;Laerm;60940;52.046;5.340;2023-04-03T00:36:40;31.11;29.53;32.37;;
71016;Laerm;60940;52.046;5.340;2023-04-03T00:36:50;31.09;29.50;32.56;;
71016;Laerm;60940;52.046;5.340;2023-04-03T00:37:01;31.48;29.87;33.26;;
71016;Laerm;60940;52.046;5.340;2023-04-03T00:37:11;31.59;30.03;37.41;;
71016;Laerm;60940;52.046;5.340;2023-04-03T00:37:22;31.56;29.93;33.05;;
71016;Laerm;60940;52.046;5.340;2023-04-03T00:37:32;31.66;30.25;34.61;;
71016;Laerm;60940;52.046;5.340;2023-04-03T00:37:43;31.51;30.08;33.15;;
71016;Laerm;60940;52.046;5.340;2023-04-03T00:37:54;31.42;29.99;33.53;;
71016;Laerm;60940;52.046;5.340;2023-04-03T00:38:05;31.79;30.25;33.68;;
71016;Laerm;60940;52.046;5.340;2023-04-03T00:38:15;31.37;29.98;32.75;;
71016;Laerm;60940;52.046;5.340;2023-04-03T00:38:25;31.43;29.96;32.83;;
71016;Laerm;60940;52.046;5.340;2023-04-03T00:38:36;32.29;30.56;33.93;;
71016;Laerm;60940;52.046;5.340;2023-04-03T00:38:46;33.25;31.21;35.91;;
71016;Laerm;60940;52.046;5.340;2023-04-03T00:38:56;32.55;30.69;34.36;;
71016;Laerm;60940;52.046;5.340;2023-04-03T00:39:07;32.47;30.56;35.51;;
71016;Laerm;60940;52.046;5.340;2023-04-03T00:39:17;32.03;30.53;34.09;;
71016;Laerm;60940;52.046;5.340;2023-04-03T00:39:27;32.21;30.52;34.06;;
71016;Laerm;60940;52.046;5.340;2023-04-03T00:39:38;32.23;30.91;34.74;;
71016;Laerm;60940;52.046;5.340;2023-04-03T00:39:49;32.31;30.51;36.37;;
71016;Laerm;60940;52.046;5.340;2023-04-03T00:39:59;32.30;30.62;35.74;;
71016;Laerm;60940;52.046;5.340;2023-04-03T00:40:10;31.95;30.43;33.32;;
71016;Laerm;60940;52.046;5.340;2023-04-03T00:40:21;32.58;30.41;43.37;;
71016;Laerm;60940;52.046;5.340;2023-04-03T00:40:36;31.77;30.23;40.13;;
71016;Laerm;60940;52.046;5.340;2023-04-03T00:40:47;32.11;30.30;34.19;;
71016;Laerm;60940;52.046;5.340;2023-04-03T00:40:57;31.62;30.10;33.86;;
71016;Laerm;60940;52.046;5.340;2023-04-03T00:41:07;31.54;29.55;32.99;;
71016;Laerm;60940;52.046;5.340;2023-04-03T00:41:18;31.49;30.05;32.77;;
71016;Laerm;60940;52.046;5.340;2023-04-03T00:41:28;31.60;29.85;32.94;;
71016;Laerm;60940;52.046;5.340;2023-04-03T00:41:38;31.87;30.29;35.67;;
71016;Laerm;60940;52.046;5.340;2023-04-03T00:41:48;31.60;30.04;33.10;;
71016;Laerm;60940;52.046;5.340;2023-04-03T00:41:59;31.70;30.22;33.18;;
71016;Laerm;60940;52.046;5.340;2023-04-03T00:42:09;31.30;30.05;32.57;;
71016;Laerm;60940;52.046;5.340;2023-04-03T00:42:19;31.35;29.90;32.64;;
71016;Laerm;60940;52.046;5.340;2023-04-03T00:42:29;31.44;29.98;32.78;;
71016;Laerm;60940;52.046;5.340;2023-04-03T00:42:40;31.53;30.12;32.67;;
71016;Laerm;60940;52.046;5.340;2023-04-03T00:42:51;31.73;30.27;33.44;;
71016;Laerm;60940;52.046;5.340;2023-04-03T00:43:02;31.97;30.01;33.88;;
71016;Laerm;60940;52.046;5.340;2023-04-03T00:43:17;31.52;29.73;33.32;;
71016;Laerm;60940;52.046;5.340;2023-04-03T00:43:27;31.30;29.78;34.68;;
71016;Laerm;60940;52.046;5.340;2023-04-03T00:43:37;31.32;29.76;32.96;;
71016;Laerm;60940;52.046;5.340;2023-04-03T00:43:48;31.56;29.98;33.07;;
71016;Laerm;60940;52.046;5.340;2023-04-03T00:43:58;31.62;30.20;33.21;;
71016;Laerm;60940;52.046;5.340;2023-04-03T00:45:33;31.48;29.69;34.35;;
71016;Laerm;60940;52.046;5.340;2023-04-03T00:45:48;31.83;30.27;33.65;;
71016;Laerm;60940;52.046;5.340;2023-04-03T00:45:59;31.43;29.91;32.82;;
71016;Laerm;60940;52.046;5.340;2023-04-03T00:46:09;31.23;29.66;32.64;;
71016;Laerm;60940;52.046;5.340;2023-04-03T00:46:20;31.70;30.03;33.57;;
71016;Laerm;60940;52.046;5.340;2023-04-03T00:46:30;31.80;30.17;34.33;;
71016;Laerm;60940;52.046;5.340;2023-04-03T00:46:40;31.29;29.90;32.89;;
71016;Laerm;60940;52.046;5.340;2023-04-03T00:46:50;30.99;29.58;32.07;;
71016;Laerm;60940;52.046;5.340;2023-04-03T00:47:02;31.04;29.70;32.37;;
71016;Laerm;60940;52.046;5.340;2023-04-03T00:47:14;31.43;29.95;34.48;;
71016;Laerm;60940;52.046;5.340;2023-04-03T00:47:25;31.52;29.73;33.22;;
71016;Laerm;60940;52.046;5.340;2023-04-03T00:47:37;31.77;30.54;33.42;;
71016;Laerm;60940;52.046;5.340;2023-04-03T00:47:48;31.79;30.03;33.77;;
71016;Laerm;60940;52.046;5.340;2023-04-03T00:47:59;31.46;30.18;32.94;;
71016;Laerm;60940;52.046;5.340;2023-04-03T00:48:11;31.48;29.93;34.73;;
71016;Laerm;60940;52.046;5.340;2023-04-03T00:48:34;31.21;29.79;32.78;;
71016;Laerm;60940;52.046;5.340;2023-04-03T00:48:45;31.03;29.75;32.52;;
71016;Laerm;60940;52.046;5.340;2023-04-03T00:48:56;31.00;29.67;32.48;;
71016;Laerm;60940;52.046;5.340;2023-04-03T00:49:06;31.12;29.56;33.31;;
71016;Laerm;60940;52.046;5.340;2023-04-03T00:49:16;31.30;29.88;32.91;;
71016;Laerm;60940;52.046;5.340;2023-04-03T00:49:27;31.26;29.80;32.73;;
71016;Laerm;60940;52.046;5.340;2023-04-03T00:49:38;31.53;29.71;33.57;;
71016;Laerm;60940;52.046;5.340;2023-04-03T00:49:48;31.33;30.11;33.53;;
71016;Laerm;60940;52.046;5.340;2023-04-03T00:49:59;31.52;29.89;33.46;;
71016;Laerm;60940;52.046;5.340;2023-04-03T00:50:09;31.55;30.13;32.93;;
71016;Laerm;60940;52.046;5.340;2023-04-03T00:50:20;32.20;29.69;40.88;;
71016;Laerm;60940;52.046;5.340;2023-04-03T00:50:31;32.10;30.38;39.23;;
71016;Laerm;60940;52.046;5.340;2023-04-03T00:50:42;31.85;30.34;37.33;;
71016;Laerm;60940;52.046;5.340;2023-04-03T00:50:53;31.64;29.83;33.19;;
71016;Laerm;60940;52.046;5.340;2023-04-03T00:51:05;31.65;30.15;32.99;;
71016;Laerm;60940;52.046;5.340;2023-04-03T00:51:18;32.02;30.40;33.94;;
71016;Laerm;60940;52.046;5.340;2023-04-03T00:51:29;33.36;30.92;43.96;;
71016;Laerm;60940;52.046;5.340;2023-04-03T00:51:40;37.05;31.60;48.46;;
71016;Laerm;60940;52.046;5.340;2023-04-03T00:51:50;33.98;31.97;41.11;;
71016;Laerm;60940;52.046;5.340;2023-04-03T00:52:01;33.35;30.83;43.76;;
71016;Laerm;60940;52.046;5.340;2023-04-03T00:52:13;32.44;29.58;45.81;;
71016;Laerm;60940;52.046;5.340;2023-04-03T00:52:25;31.57;30.05;34.09;;
71016;Laerm;60940;52.046;5.340;2023-04-03T00:52:37;31.69;30.41;33.05;;
71016;Laerm;60940;52.046;5.340;2023-04-03T00:52:47;32.07;30.38;34.22;;
71016;Laerm;60940;52.046;5.340;2023-04-03T00:52:59;32.54;30.86;35.23;;
71016;Laerm;60940;52.046;5.340;2023-04-03T00:53:11;32.06;30.74;36.54;;
71016;Laerm;60940;52.046;5.340;2023-04-03T00:53:23;31.34;30.00;33.58;;
71016;Laerm;60940;52.046;5.340;2023-04-03T00:53:38;31.41;29.95;32.70;;
71016;Laerm;60940;52.046;5.340;2023-04-03T00:53:56;31.49;29.96;33.07;;
71016;Laerm;60940;52.046;5.340;2023-04-03T00:54:08;31.07;29.27;35.19;;
71016;Laerm;60940;52.046;5.340;2023-04-03T00:54:19;31.14;29.49;35.27;;
71016;Laerm;60940;52.046;5.340;2023-04-03T00:54:29;31.26;29.93;32.50;;
71016;Laerm;60940;52.046;5.340;2023-04-03T00:54:39;31.22;29.66;33.24;;
71016;Laerm;60940;52.046;5.340;2023-04-03T00:54:51;30.94;29.48;32.61;;
71016;Laerm;60940;52.046;5.340;2023-04-03T00:55:04;31.24;29.47;32.63;;
71016;Laerm;60940;52.046;5.340;2023-04-03T00:55:15;31.19;29.79;32.63;;
71016;Laerm;60940;52.046;5.340;2023-04-03T00:55:26;31.06;29.42;32.33;;
71016;Laerm;60940;52.046;5.340;2023-04-03T00:55:36;30.93;29.37;32.36;;
71016;Laerm;60940;52.046;5.340;2023-04-03T00:55:48;31.31;29.90;33.15;;
71016;Laerm;60940;52.046;5.340;2023-04-03T00:55:59;31.34;29.63;36.69;;
71016;Laerm;60940;52.046;5.340;2023-04-03T00:56:11;31.33;29.69;36.33;;
71016;Laerm;60940;52.046;5.340;2023-04-03T00:56:23;31.42;30.16;37.93;;
71016;Laerm;60940;52.046;5.340;2023-04-03T00:56:35;31.58;30.03;35.33;;
71016;Laerm;60940;52.046;5.340;2023-04-03T00:56:46;31.47;29.86;32.82;;
71016;Laerm;60940;52.046;5.340;2023-04-03T00:56:56;31.32;29.66;32.71;;
71016;Laerm;60940;52.046;5.340;2023-04-03T00:57:07;31.21;30.01;32.82;;
71016;Laerm;60940;52.046;5.340;2023-04-03T00:57:18;31.50;30.10;32.89;;
71016;Laerm;60940;52.046;5.340;2023-04-03T00:57:29;31.37;30.10;32.91;;
71016;Laerm;60940;52.046;5.340;2023-04-03T00:57:40;31.46;30.10;33.08;;
71016;Laerm;60940;52.046;5.340;2023-04-03T00:57:51;31.67;29.73;33.65;;
71016;Laerm;60940;52.046;5.340;2023-04-03T00:58:01;31.70;30.45;35.97;;
71016;Laerm;60940;52.046;5.340;2023-04-03T00:58:12;32.22;30.28;41.21;;
71016;Laerm;60940;52.046;5.340;2023-04-03T00:58:27;31.71;30.23;35.30;;
71016;Laerm;60940;52.046;5.340;2023-04-03T00:58:42;31.61;30.18;36.79;;
71016;Laerm;60940;52.046;5.340;2023-04-03T00:59:30;31.53;30.04;33.44;;
71016;Laerm;60940;52.046;5.340;2023-04-03T00:59:43;31.19;29.92;33.36;;
71016;Laerm;60940;52.046;5.340;2023-04-03T00:59:55;31.35;29.75;32.73;;
71016;Laerm;60940;52.046;5.340;2023-04-03T01:00:09;31.53;29.97;34.08;;
71016;Laerm;60940;52.046;5.340;2023-04-03T01:00:20;31.75;29.94;37.31;;
71016;Laerm;60940;52.046;5.340;2023-04-03T01:00:30;31.24;29.43;34.70;;
71016;Laerm;60940;52.046;5.340;2023-04-03T01:00:42;31.54;29.77;33.07;;
71016;Laerm;60940;52.046;5.340;2023-04-03T01:00:54;31.89;30.22;33.82;;
71016;Laerm;60940;52.046;5.340;2023-04-03T01:01:08;31.33;30.10;33.34;;
71016;Laerm;60940;52.046;5.340;2023-04-03T01:01:22;31.85;30.49;36.82;;
71016;Laerm;60940;52.046;5.340;2023-04-03T01:01:33;32.45;30.51;33.88;;
71016;Laerm;60940;52.046;5.340;2023-04-03T01:01:44;31.88;30.36;34.29;;
71016;Laerm;60940;52.046;5.340;2023-04-03T01:01:55;33.23;30.20;37.75;;
71016;Laerm;60940;52.046;5.340;2023-04-03T01:02:06;33.74;31.10;37.52;;